createdAt,value
2022-08-22T00:00:31.180Z,22.42
2022-08-22T00:02:47.978Z,26.70
2022-08-22T00:03:15.838Z,20.88
2022-08-22T00:03:32.870Z,17.15
2022-08-22T00:06:31.667Z,23.65
2022-08-22T00:09:36.469Z,23.00
2022-08-22T00:12:21.179Z,24.77
2022-08-22T00:14:56.619Z,19.70
2022-08-22T00:17:45.502Z,21.33
2022-08-22T00:20:37.949Z,16.92
2022-08-22T00:23:19.618Z,23.10
2022-08-22T00:26:15.415Z,17.67
2022-08-22T00:29:06.646Z,14.70
2022-08-22T00:31:40.472Z,13.82
2022-08-22T00:34:17.223Z,18.98
2022-08-22T00:36:53.539Z,15.45
2022-08-22T00:39:45.140Z,16.88
2022-08-22T00:42:31.734Z,17.23
2022-08-22T00:45:18.245Z,21.77
2022-08-22T00:48:00.688Z,18.42
2022-08-22T00:50:30.987Z,17.15
2022-08-22T00:53:33.944Z,17.52
2022-08-22T00:56:22.329Z,18.30
2022-08-22T00:59:23.909Z,19.98
2022-08-22T01:02:32.387Z,23.25
2022-08-22T01:05:37.187Z,19.95
2022-08-22T01:08:23.070Z,21.30
2022-08-22T01:10:53.232Z,20.08
2022-08-22T01:13:20.736Z,20.38
2022-08-22T01:15:53.722Z,22.45
2022-08-22T01:18:41.910Z,22.05
2022-08-22T01:21:33.756Z,17.80
2022-08-22T01:24:26.386Z,18.65
2022-08-22T01:27:08.633Z,22.02
2022-08-22T01:30:23.424Z,16.08
2022-08-22T01:33:32.487Z,17.17
2022-08-22T01:36:41.372Z,18.23
2022-08-22T01:39:26.821Z,19.15
2022-08-22T01:42:31.663Z,23.88
2022-08-22T01:45:46.714Z,19.25
2022-08-22T01:48:27.851Z,20.10
2022-08-22T01:51:02.271Z,23.15
2022-08-22T01:53:48.377Z,23.60
2022-08-22T01:56:24.041Z,24.27
2022-08-22T01:59:34.036Z,23.60
2022-08-22T02:02:25.605Z,19.45
2022-08-22T02:05:09.980Z,21.27
2022-08-22T02:07:46.456Z,28.35
2022-08-22T02:10:44.237Z,19.83
2022-08-22T02:13:23.501Z,23.58
2022-08-22T02:16:05.190Z,22.85
2022-08-22T02:18:47.056Z,28.88
2022-08-22T02:21:22.584Z,22.02
2022-08-22T02:24:01.498Z,16.98
2022-08-22T02:27:09.071Z,23.63
2022-08-22T02:29:44.097Z,19.33
2022-08-22T02:32:17.104Z,17.73
2022-08-22T02:35:07.592Z,26.10
2022-08-22T02:37:55.361Z,22.00
2022-08-22T02:40:43.733Z,30.50
2022-08-22T02:43:44.706Z,22.45
2022-08-22T02:46:25.340Z,22.73
2022-08-22T02:51:31.376Z,30.15
2022-08-22T02:54:43.965Z,25.42
2022-08-22T02:57:22.841Z,18.80
2022-08-22T03:00:32.337Z,25.55
2022-08-22T03:03:05.722Z,26.92
2022-08-22T03:05:36.052Z,30.15
2022-08-22T03:08:32.667Z,25.95
2022-08-22T03:11:26.641Z,22.77
2022-08-22T03:14:36.506Z,23.48
2022-08-22T03:17:09.714Z,23.40
2022-08-22T03:20:01.351Z,28.60
2022-08-22T03:22:51.434Z,22.45
2022-08-22T03:25:40.610Z,23.88
2022-08-22T03:28:19.567Z,29.80
2022-08-22T03:31:16.952Z,26.80
2022-08-22T03:33:45.417Z,27.92
2022-08-22T03:36:19.626Z,28.95
2022-08-22T03:39:08.161Z,27.48
2022-08-22T03:42:37.413Z,22.90
2022-08-22T03:45:29.765Z,27.73
2022-08-22T03:48:35.583Z,27.45
2022-08-22T03:51:23.074Z,26.50
2022-08-22T03:53:50.256Z,23.05
2022-08-22T03:56:42.426Z,32.58
2022-08-22T03:59:31.419Z,22.52
2022-08-22T04:02:43.296Z,25.70
2022-08-22T04:05:40.687Z,24.45
2022-08-22T04:08:14.331Z,35.75
2022-08-22T04:10:58.435Z,34.47
2022-08-22T04:14:07.869Z,24.90
2022-08-22T04:16:48.453Z,27.83
2022-08-22T04:20:00.876Z,26.70
2022-08-22T04:22:48.918Z,29.55
2022-08-22T04:25:26.023Z,31.30
2022-08-22T04:28:03.477Z,28.20
2022-08-22T04:30:42.818Z,30.70
2022-08-22T04:33:37.219Z,23.55
2022-08-22T04:36:29.444Z,30.10
2022-08-22T04:39:13.267Z,23.95
2022-08-22T04:42:31.353Z,20.85
2022-08-22T04:45:06.332Z,19.27
2022-08-22T04:47:44.347Z,25.63
2022-08-22T04:50:31.131Z,22.38
2022-08-22T04:53:09.956Z,27.23
2022-08-22T04:56:11.748Z,21.95
2022-08-22T04:58:49.618Z,22.30
2022-08-22T05:01:21.554Z,27.30
2022-08-22T05:04:14.430Z,25.42
2022-08-22T05:06:50.709Z,24.23
2022-08-22T05:09:25.865Z,28.27
2022-08-22T05:11:58.230Z,32.03
2022-08-22T05:14:40.089Z,28.63
2022-08-22T05:17:11.922Z,27.38
2022-08-22T05:19:51.240Z,33.95
2022-08-22T05:22:25.278Z,34.05
2022-08-22T05:24:59.740Z,32.58
2022-08-22T05:30:05.296Z,35.47
2022-08-22T05:32:56.913Z,32.30
2022-08-22T05:35:58.175Z,33.38
2022-08-22T05:38:39.928Z,30.25
2022-08-22T05:41:20.441Z,26.40
2022-08-22T05:43:48.891Z,36.13
2022-08-22T05:46:26.844Z,36.30
2022-08-22T05:49:04.057Z,30.05
2022-08-22T05:51:44.715Z,30.25
2022-08-22T05:54:34.221Z,26.13
2022-08-22T05:57:24.240Z,35.90
2022-08-22T06:00:01.042Z,30.52
2022-08-22T06:05:31.707Z,35.92
2022-08-22T06:08:14.281Z,28.65
2022-08-22T06:10:49.470Z,35.90
2022-08-22T06:13:24.666Z,27.17
2022-08-22T06:16:09.624Z,46.97
2022-08-22T06:18:46.040Z,36.60
2022-08-22T06:21:32.556Z,34.58
2022-08-22T06:26:57.844Z,44.53
2022-08-22T06:33:17.675Z,35.30
2022-08-22T06:36:09.607Z,37.45
2022-08-22T06:39:13.559Z,34.22
2022-08-22T06:42:34.671Z,35.15
2022-08-22T06:45:26.731Z,35.33
2022-08-22T06:48:06.963Z,35.45
2022-08-22T06:50:41.860Z,22.60
2022-08-22T06:53:22.421Z,34.15
2022-08-22T06:55:56.293Z,27.08
2022-08-22T06:58:45.278Z,29.02
2022-08-22T07:01:32.344Z,34.75
2022-08-22T07:06:51.021Z,23.90
2022-08-22T07:12:20.512Z,27.50
2022-08-22T07:14:54.098Z,29.95
2022-08-22T07:17:31.810Z,39.92
2022-08-22T07:20:04.858Z,19.63
2022-08-22T07:22:41.490Z,28.55
2022-08-22T07:25:14.751Z,26.77
2022-08-22T07:31:31.924Z,26.05
2022-08-22T07:34:34.575Z,20.08
2022-08-22T07:37:27.640Z,27.58
2022-08-22T07:40:01.281Z,25.88
2022-08-22T07:45:49.474Z,25.83
2022-08-22T07:49:05.965Z,25.92
2022-08-22T07:51:58.772Z,20.30
2022-08-22T07:54:28.597Z,25.30
2022-08-22T07:57:10.579Z,19.65
2022-08-22T07:59:56.123Z,22.67
2022-08-22T08:02:25.356Z,33.72
2022-08-22T08:04:55.157Z,27.77
2022-08-22T08:07:25.890Z,26.60
2022-08-22T08:10:13.146Z,14.23
2022-08-22T08:13:02.282Z,25.65
2022-08-22T08:15:34.789Z,34.70
2022-08-22T08:18:06.299Z,36.45
2022-08-22T08:20:38.601Z,30.67
2022-08-22T08:23:10.372Z,28.88
2022-08-22T08:26:10.648Z,22.60
2022-08-22T08:28:48.295Z,24.02
2022-08-22T08:31:49.967Z,23.30
2022-08-22T08:34:26.749Z,35.13
2022-08-22T08:37:13.962Z,26.08
2022-08-22T08:39:52.107Z,24.70
2022-08-22T08:43:18.110Z,23.92
2022-08-22T08:46:16.078Z,32.08
2022-08-22T08:49:10.028Z,24.05
2022-08-22T08:52:09.372Z,26.98
2022-08-22T08:54:55.850Z,25.25
2022-08-22T08:58:06.687Z,24.73
2022-08-22T09:00:57.557Z,35.13
2022-08-22T09:03:47.865Z,26.52
2022-08-22T09:06:56.602Z,26.35
2022-08-22T09:09:40.080Z,20.33
2022-08-22T09:12:36.778Z,31.05
2022-08-22T09:15:43.108Z,15.70
2022-08-22T09:27:32.832Z,22.95
2022-08-22T09:33:11.881Z,22.83
2022-08-22T09:35:49.202Z,24.17
2022-08-22T09:38:25.866Z,20.77
2022-08-22T09:43:48.433Z,26.95
2022-08-22T09:46:16.981Z,20.73
2022-08-22T09:48:57.769Z,19.58
2022-08-22T09:51:53.821Z,20.25
2022-08-22T09:54:31.703Z,28.00
2022-08-22T09:57:18.179Z,17.75
2022-08-22T10:00:12.473Z,15.23
2022-08-22T10:03:03.233Z,30.65
2022-08-22T10:05:43.661Z,35.05
2022-08-22T10:08:34.705Z,29.23
2022-08-22T10:11:23.860Z,19.95
2022-08-22T10:14:05.080Z,15.88
2022-08-22T10:16:50.843Z,21.83
2022-08-22T10:19:36.985Z,33.35
2022-08-22T10:22:39.622Z,28.60
2022-08-22T10:25:41.662Z,20.17
2022-08-22T10:28:32.057Z,17.08
2022-08-22T10:31:08.329Z,20.77
2022-08-22T10:33:41.506Z,18.35
2022-08-22T10:36:19.627Z,14.63
2022-08-22T10:39:11.928Z,23.02
2022-08-22T10:42:00.746Z,27.80
2022-08-22T10:44:40.684Z,18.83
2022-08-22T10:47:24.549Z,22.95
2022-08-22T10:50:14.261Z,20.50
2022-08-22T10:53:12.260Z,15.98
2022-08-22T10:55:43.273Z,16.05
2022-08-22T10:58:15.702Z,15.50
2022-08-22T11:00:56.877Z,16.55
2022-08-22T11:03:57.644Z,10.02
2022-08-22T11:06:36.498Z,22.02
2022-08-22T11:09:36.279Z,16.77
2022-08-22T11:12:44.583Z,13.00
2022-08-22T11:15:33.259Z,19.90
2022-08-22T11:18:20.905Z,18.50
2022-08-22T11:21:00.354Z,13.73
2022-08-22T11:26:49.527Z,13.43
2022-08-22T11:29:35.545Z,24.08
2022-08-22T11:32:38.428Z,20.52
2022-08-22T11:42:21.864Z,22.92
2022-08-22T11:45:25.965Z,15.68
2022-08-22T11:48:10.078Z,15.82
2022-08-22T11:51:25.068Z,10.27
2022-08-22T11:54:31.246Z,16.02
2022-08-22T12:00:20.712Z,10.98
2022-08-22T12:03:13.559Z,17.92
2022-08-22T12:05:55.789Z,16.05
2022-08-22T12:08:37.774Z,18.25
2022-08-22T12:11:19.911Z,12.23
2022-08-22T12:14:49.653Z,16.60
2022-08-22T12:17:55.267Z,16.42
2022-08-22T12:20:58.007Z,21.23
2022-08-22T12:23:48.598Z,14.30
2022-08-22T12:26:21.985Z,15.05
2022-08-22T12:29:33.448Z,16.15
2022-08-22T12:32:27.862Z,14.90
2022-08-22T12:35:20.530Z,19.05
2022-08-22T12:38:26.652Z,13.38
2022-08-22T12:41:28.028Z,13.85
2022-08-22T12:44:32.539Z,11.50
2022-08-22T12:47:11.244Z,25.00
2022-08-22T12:49:55.703Z,13.98
2022-08-22T12:56:02.955Z,13.77
2022-08-22T12:58:37.963Z,15.82
2022-08-22T13:01:10.907Z,11.50
2022-08-22T13:03:55.520Z,21.83
2022-08-22T13:06:38.063Z,16.60
2022-08-22T13:09:09.848Z,15.32
2022-08-22T13:11:40.548Z,18.40
2022-08-22T13:14:18.506Z,15.60
2022-08-22T13:16:55.613Z,15.80
2022-08-22T13:19:32.314Z,11.52
2022-08-22T13:22:09.869Z,15.70
2022-08-22T13:24:52.432Z,8.18
2022-08-22T13:27:29.757Z,15.07
2022-08-22T13:30:04.951Z,15.85
2022-08-22T13:32:47.359Z,11.40
2022-08-22T13:35:43.349Z,17.05
2022-08-22T13:38:17.495Z,16.67
2022-08-22T13:40:58.752Z,10.52
2022-08-22T13:43:31.802Z,13.10
2022-08-22T13:46:25.614Z,12.93
2022-08-22T13:49:00.969Z,9.88
2022-08-22T13:52:28.821Z,16.60
2022-08-22T13:55:29.514Z,11.80
2022-08-22T13:58:30.205Z,20.13
2022-08-22T14:01:10.556Z,10.57
2022-08-22T14:03:48.685Z,15.73
2022-08-22T14:06:55.218Z,15.68
2022-08-22T14:10:04.972Z,4.65
2022-08-22T14:13:09.948Z,15.70
2022-08-22T14:15:45.836Z,16.27
2022-08-22T14:18:31.661Z,12.38
2022-08-22T14:33:52.631Z,9.68
2022-08-22T14:36:40.306Z,8.90
2022-08-22T14:39:30.284Z,14.13
2022-08-22T14:42:27.285Z,12.32
2022-08-22T14:45:26.973Z,8.38
2022-08-22T14:48:29.602Z,11.80
2022-08-22T14:50:55.148Z,9.98
2022-08-22T14:53:26.967Z,9.70
2022-08-22T14:56:01.381Z,9.73
2022-08-22T14:58:38.654Z,13.93
2022-08-22T15:01:25.167Z,10.43
2022-08-22T15:04:05.897Z,10.07
2022-08-22T15:06:48.483Z,11.00
2022-08-22T15:10:03.225Z,9.73
2022-08-22T15:12:37.921Z,10.43
2022-08-22T15:15:52.517Z,11.35
2022-08-22T15:18:31.710Z,9.98
2022-08-22T15:21:08.594Z,13.60
2022-08-22T15:23:45.326Z,12.68
2022-08-22T15:26:30.774Z,13.23
2022-08-22T15:31:47.140Z,11.05
2022-08-22T15:34:52.351Z,20.00
2022-08-22T15:37:21.586Z,13.60
2022-08-22T15:40:08.069Z,12.02
2022-08-22T15:42:46.203Z,10.95
2022-08-22T15:45:37.410Z,17.52
2022-08-22T15:48:28.223Z,10.82
2022-08-22T15:50:57.273Z,11.27
2022-08-22T15:53:30.259Z,15.98
2022-08-22T15:56:07.053Z,16.67
2022-08-22T15:58:40.146Z,15.70
2022-08-22T16:01:22.739Z,20.48
2022-08-22T16:04:09.749Z,15.63
2022-08-22T16:06:40.119Z,14.65
2022-08-22T16:09:29.977Z,15.02
2022-08-22T16:12:04.056Z,16.38
2022-08-22T16:14:34.171Z,16.48
2022-08-22T16:17:28.502Z,13.73
2022-08-22T16:20:27.475Z,17.20
2022-08-22T16:23:04.236Z,13.27
2022-08-22T16:26:03.586Z,23.52
2022-08-22T16:28:57.221Z,13.18
2022-08-22T16:31:41.585Z,19.70
2022-08-22T16:34:18.066Z,19.25
2022-08-22T16:37:10.450Z,21.08
2022-08-22T16:39:54.838Z,20.85
2022-08-22T16:42:26.338Z,21.65
2022-08-22T16:45:02.791Z,17.27
2022-08-22T16:47:52.219Z,19.55
2022-08-22T16:50:38.572Z,13.77
2022-08-22T16:53:23.990Z,19.83
2022-08-22T16:56:18.916Z,23.02
2022-08-22T16:59:22.983Z,25.60
2022-08-22T17:02:09.491Z,29.02
2022-08-22T17:04:56.216Z,92.55
2022-08-22T17:08:02.469Z,48.80
2022-08-22T17:10:40.307Z,46.65
2022-08-22T17:13:12.668Z,34.72
2022-08-22T17:16:17.548Z,27.42
2022-08-22T17:19:12.244Z,22.08
2022-08-22T17:21:50.645Z,15.93
2022-08-22T17:24:32.149Z,23.48
2022-08-22T17:27:13.428Z,21.95
2022-08-22T17:30:23.973Z,24.40
2022-08-22T17:33:35.693Z,19.60
2022-08-22T17:36:26.693Z,20.88
2022-08-22T17:39:21.580Z,24.23
2022-08-22T17:42:20.849Z,19.00
2022-08-22T17:45:09.922Z,24.95
2022-08-22T17:48:20.024Z,24.75
2022-08-22T17:50:56.228Z,17.90
2022-08-22T17:53:33.213Z,22.48
2022-08-22T17:56:15.420Z,18.75
2022-08-22T17:58:52.149Z,23.38
2022-08-22T18:02:04.475Z,22.02
2022-08-22T18:04:47.274Z,18.55
2022-08-22T18:07:28.147Z,23.50
2022-08-22T18:10:21.728Z,24.30
2022-08-22T18:13:08.096Z,20.85
2022-08-22T18:15:47.806Z,35.13
2022-08-22T18:18:25.773Z,19.98
2022-08-22T18:21:35.247Z,23.10
2022-08-22T18:24:23.745Z,21.13
2022-08-22T18:27:35.302Z,21.48
2022-08-22T18:30:20.924Z,16.10
2022-08-22T18:33:12.979Z,13.23
2022-08-22T18:35:54.893Z,37.20
2022-08-22T18:38:40.603Z,60.92
2022-08-22T18:41:26.117Z,40.05
2022-08-22T18:43:57.786Z,41.65
2022-08-22T18:46:45.202Z,54.50
2022-08-22T18:49:19.783Z,49.28
2022-08-22T18:52:14.726Z,46.58
2022-08-22T18:55:05.775Z,43.35
2022-08-22T18:57:54.553Z,33.90
2022-08-22T19:00:59.945Z,42.05
2022-08-22T19:03:51.616Z,36.17
2022-08-22T19:06:48.188Z,46.58
2022-08-22T19:09:46.383Z,42.58
2022-08-22T19:12:36.197Z,47.95
2022-08-22T19:15:26.781Z,39.85
2022-08-22T19:18:28.086Z,39.65
2022-08-22T19:21:49.020Z,57.42
2022-08-22T19:24:28.351Z,42.22
2022-08-22T19:27:16.279Z,45.10
2022-08-22T19:29:44.078Z,47.38
2022-08-22T19:32:35.470Z,52.72
2022-08-22T19:36:04.535Z,52.35
2022-08-22T19:39:09.158Z,51.33
2022-08-22T19:41:40.127Z,53.47
2022-08-22T19:44:38.629Z,53.22
2022-08-22T19:47:17.552Z,46.80
2022-08-22T19:50:05.483Z,52.65
2022-08-22T19:52:33.069Z,61.47
2022-08-22T19:55:18.342Z,43.53
2022-08-22T19:57:48.663Z,48.67
2022-08-22T20:00:54.797Z,59.55
2022-08-22T20:03:55.982Z,47.78
2022-08-22T20:06:46.254Z,53.53
2022-08-22T20:09:25.539Z,44.65
2022-08-22T20:12:17.132Z,42.92
2022-08-22T20:14:47.639Z,35.88
2022-08-22T20:17:27.321Z,45.97
2022-08-22T20:20:17.520Z,60.53
2022-08-22T20:23:10.029Z,66.55
2022-08-22T20:25:54.414Z,55.70
2022-08-22T20:28:45.106Z,59.20
2022-08-22T20:31:21.759Z,60.58
2022-08-22T20:33:55.736Z,63.35
2022-08-22T20:36:28.507Z,55.95
2022-08-22T20:39:03.179Z,58.70
2022-08-22T20:41:41.206Z,67.32
2022-08-22T20:44:29.609Z,86.88
2022-08-22T20:47:09.299Z,64.05
2022-08-22T20:49:52.884Z,67.60
2022-08-22T20:52:20.052Z,67.20
2022-08-22T20:55:16.167Z,64.05
2022-08-22T20:57:49.476Z,73.75
2022-08-22T21:00:22.595Z,66.85
2022-08-22T21:02:59.126Z,51.47
2022-08-22T21:05:35.036Z,66.07
2022-08-22T21:08:09.025Z,74.40
2022-08-22T21:10:57.656Z,68.85
2022-08-22T21:13:36.748Z,74.95
2022-08-22T21:16:45.499Z,65.00
2022-08-22T21:19:41.818Z,71.20
2022-08-22T21:22:38.310Z,76.25
2022-08-22T21:25:05.796Z,80.97
2022-08-22T21:27:35.117Z,66.47
2022-08-22T21:30:08.736Z,70.85
2022-08-22T21:32:43.148Z,64.88
2022-08-22T21:35:30.243Z,66.85
2022-08-22T21:38:01.648Z,73.00
2022-08-22T21:40:28.793Z,79.07
2022-08-22T21:43:12.714Z,67.80
2022-08-22T21:45:40.031Z,78.90
2022-08-22T21:48:33.812Z,84.03
2022-08-22T21:51:23.064Z,68.05
2022-08-22T21:54:17.638Z,57.72
2022-08-22T21:56:50.592Z,67.88
2022-08-22T21:59:51.559Z,51.35
2022-08-22T22:02:31.467Z,69.90
2022-08-22T22:05:11.529Z,61.65
2022-08-22T22:07:44.006Z,73.47
2022-08-22T22:10:15.449Z,70.35
2022-08-22T22:12:44.924Z,66.00
2022-08-22T22:15:15.801Z,78.50
2022-08-22T22:17:46.384Z,74.95
2022-08-22T22:20:16.384Z,70.50
2022-08-22T22:22:47.185Z,69.97
2022-08-22T22:25:40.645Z,66.95
2022-08-22T22:28:13.701Z,61.10
2022-08-22T22:30:43.416Z,58.72
2022-08-22T22:33:13.619Z,61.72
2022-08-22T22:35:40.922Z,58.17
2022-08-22T22:38:12.986Z,69.85
2022-08-22T22:40:41.636Z,71.35
2022-08-22T22:43:10.309Z,76.40
2022-08-22T22:45:38.462Z,68.50
2022-08-22T22:48:06.764Z,76.30
2022-08-22T22:50:41.069Z,70.60
2022-08-22T22:53:09.581Z,83.15
2022-08-22T22:58:11.179Z,75.50
2022-08-22T23:00:39.111Z,59.75
2022-08-22T23:03:09.504Z,78.65
2022-08-22T23:05:36.641Z,80.63
2022-08-22T23:08:04.916Z,81.35
2022-08-22T23:10:32.504Z,73.47
2022-08-22T23:13:00.650Z,63.30
2022-08-22T23:15:28.320Z,58.83
2022-08-22T23:17:55.527Z,76.18
2022-08-22T23:20:23.117Z,65.03
2022-08-22T23:22:50.499Z,59.40
2022-08-22T23:25:17.595Z,67.57
2022-08-22T23:27:44.768Z,64.50
2022-08-22T23:32:46.536Z,61.15
2022-08-22T23:35:13.754Z,51.00
2022-08-22T23:37:41.050Z,66.38
2022-08-22T23:40:09.652Z,58.67
2022-08-22T23:42:36.775Z,57.90
2022-08-22T23:45:04.549Z,67.00
2022-08-22T23:47:31.532Z,78.85
2022-08-22T23:49:58.548Z,68.28
2022-08-22T23:52:31.675Z,55.38
2022-08-22T23:54:58.728Z,58.72
2022-08-22T23:57:27.345Z,72.93
2022-08-22T23:59:57.914Z,66.60
